createdAt,value
2023-03-19T00:01:08.929Z,4.88
2023-03-19T00:03:37.677Z,3.83
2023-03-19T00:06:06.885Z,3.70
2023-03-19T00:08:36.428Z,2.85
2023-03-19T00:11:09.311Z,3.30
2023-03-19T00:13:38.008Z,3.10
2023-03-19T00:16:08.988Z,3.60
2023-03-19T00:18:37.759Z,3.85
2023-03-19T00:21:07.344Z,3.58
2023-03-19T00:23:36.596Z,3.42
2023-03-19T00:26:05.368Z,3.53
2023-03-19T00:28:34.136Z,3.17
2023-03-19T00:31:10.567Z,3.40
2023-03-19T00:33:40.218Z,2.85
2023-03-19T00:36:11.074Z,3.33
2023-03-19T00:38:40.549Z,3.55
2023-03-19T00:41:09.121Z,3.80
2023-03-19T00:43:38.436Z,3.05
2023-03-19T00:46:10.747Z,3.65
2023-03-19T00:48:40.552Z,2.95
2023-03-19T00:51:12.214Z,3.90
2023-03-19T00:53:40.811Z,3.03
2023-03-19T00:56:10.133Z,3.38
2023-03-19T00:58:41.453Z,3.53
2023-03-19T01:01:13.129Z,3.72
2023-03-19T01:03:41.700Z,3.85
2023-03-19T01:06:10.092Z,3.40
2023-03-19T01:08:39.037Z,3.17
2023-03-19T01:11:11.466Z,3.20
2023-03-19T01:13:40.590Z,2.90
2023-03-19T01:16:11.718Z,3.10
2023-03-19T01:18:41.172Z,3.47
2023-03-19T01:21:11.114Z,3.22
2023-03-19T01:23:41.078Z,3.03
2023-03-19T01:26:09.978Z,3.13
2023-03-19T01:28:38.512Z,3.70
2023-03-19T01:31:09.605Z,3.88
2023-03-19T01:33:39.520Z,4.97
2023-03-19T01:36:09.342Z,4.18
2023-03-19T01:38:39.479Z,4.03
2023-03-19T01:41:08.396Z,4.70
2023-03-19T01:43:39.462Z,4.13
2023-03-19T01:46:15.165Z,4.28
2023-03-19T01:48:48.260Z,4.43
2023-03-19T01:51:19.496Z,3.45
2023-03-19T01:53:51.455Z,4.40
2023-03-19T01:56:23.106Z,4.72
2023-03-19T01:58:56.117Z,6.25
2023-03-19T02:01:29.553Z,4.82
2023-03-19T02:04:01.124Z,3.95
2023-03-19T02:06:33.224Z,3.15
2023-03-19T02:09:02.087Z,4.30
2023-03-19T02:11:31.398Z,3.00
2023-03-19T02:14:00.060Z,3.75
2023-03-19T02:16:28.591Z,3.20
2023-03-19T02:18:59.848Z,3.20
2023-03-19T02:21:28.699Z,2.85
2023-03-19T02:24:05.070Z,3.85
2023-03-19T02:26:37.763Z,4.05
2023-03-19T02:29:06.322Z,3.33
2023-03-19T02:31:35.719Z,3.85
2023-03-19T02:34:07.774Z,2.85
2023-03-19T02:36:43.150Z,3.38
2023-03-19T02:39:20.629Z,3.40
2023-03-19T02:41:54.120Z,4.05
2023-03-19T02:44:23.501Z,3.05
2023-03-19T02:46:52.324Z,3.25
2023-03-19T02:49:20.859Z,2.92
2023-03-19T02:51:49.297Z,3.03
2023-03-19T02:54:17.894Z,3.17
2023-03-19T02:56:48.150Z,2.90
2023-03-19T02:59:17.975Z,3.63
2023-03-19T03:01:46.705Z,3.35
2023-03-19T03:04:16.985Z,3.58
2023-03-19T03:06:48.491Z,3.17
2023-03-19T03:09:17.540Z,2.97
2023-03-19T03:11:46.218Z,3.63
2023-03-19T03:14:14.632Z,4.00
2023-03-19T03:16:44.580Z,2.58
2023-03-19T03:19:13.587Z,3.45
2023-03-19T03:21:43.369Z,3.00
2023-03-19T03:24:13.174Z,2.65
2023-03-19T03:26:42.082Z,2.67
2023-03-19T03:29:12.248Z,3.30
2023-03-19T03:31:40.670Z,2.85
2023-03-19T03:34:11.586Z,2.97
2023-03-19T03:36:40.243Z,2.90
2023-03-19T03:39:08.684Z,3.75
2023-03-19T03:41:37.873Z,2.40
2023-03-19T03:44:07.035Z,3.50
2023-03-19T03:46:35.419Z,2.75
2023-03-19T03:49:04.527Z,2.72
2023-03-19T03:51:34.490Z,3.15
2023-03-19T03:54:03.172Z,2.85
2023-03-19T03:56:31.721Z,2.88
2023-03-19T03:59:01.411Z,3.42
2023-03-19T04:01:29.904Z,3.05
2023-03-19T04:03:58.650Z,2.80
2023-03-19T04:06:28.976Z,2.33
2023-03-19T04:08:58.770Z,2.63
2023-03-19T04:11:27.266Z,3.25
2023-03-19T04:13:57.903Z,2.85
2023-03-19T04:16:29.047Z,2.72
2023-03-19T04:18:58.008Z,2.83
2023-03-19T04:21:26.773Z,2.72
2023-03-19T04:23:55.331Z,2.67
2023-03-19T04:26:27.583Z,3.00
2023-03-19T04:28:56.293Z,2.95
2023-03-19T04:31:25.042Z,3.03
2023-03-19T04:33:54.982Z,3.00
2023-03-19T04:36:23.768Z,2.65
2023-03-19T04:38:52.735Z,3.08
2023-03-19T04:41:22.798Z,2.30
2023-03-19T04:43:53.855Z,2.53
2023-03-19T04:46:22.618Z,2.78
2023-03-19T04:48:51.266Z,2.67
2023-03-19T04:51:21.553Z,2.88
2023-03-19T04:53:50.485Z,3.13
2023-03-19T04:56:19.196Z,2.85
2023-03-19T04:58:48.167Z,2.65
2023-03-19T05:01:18.691Z,3.13
2023-03-19T05:03:47.482Z,2.80
2023-03-19T05:06:17.477Z,3.30
2023-03-19T05:08:46.176Z,2.85
2023-03-19T05:11:15.840Z,2.58
2023-03-19T05:13:44.376Z,2.90
2023-03-19T05:16:14.525Z,3.20
2023-03-19T05:18:45.361Z,2.55
2023-03-19T05:21:16.086Z,2.78
2023-03-19T05:23:44.509Z,2.63
2023-03-19T05:26:13.041Z,3.05
2023-03-19T05:28:41.603Z,2.67
2023-03-19T05:31:10.250Z,3.20
2023-03-19T05:33:38.792Z,3.10
2023-03-19T05:36:09.545Z,3.22
2023-03-19T05:38:38.135Z,2.65
2023-03-19T05:41:07.019Z,2.70
2023-03-19T05:43:35.863Z,2.83
2023-03-19T05:46:04.824Z,3.10
2023-03-19T05:48:33.887Z,2.83
2023-03-19T05:51:02.649Z,2.90
2023-03-19T05:53:34.474Z,3.17
2023-03-19T05:56:03.166Z,2.97
2023-03-19T05:58:31.513Z,3.00
2023-03-19T06:01:00.132Z,2.38
2023-03-19T06:03:29.157Z,3.13
2023-03-19T06:05:58.438Z,2.35
2023-03-19T06:08:27.414Z,2.60
2023-03-19T06:10:58.420Z,3.30
2023-03-19T06:13:27.585Z,3.15
2023-03-19T06:15:56.171Z,2.95
2023-03-19T06:18:24.852Z,2.78
2023-03-19T06:20:53.519Z,2.90
2023-03-19T06:23:22.064Z,2.70
2023-03-19T06:25:50.666Z,2.85
2023-03-19T06:28:20.772Z,3.03
2023-03-19T06:30:50.205Z,3.08
2023-03-19T06:33:21.854Z,2.70
2023-03-19T06:35:50.373Z,2.33
2023-03-19T06:38:19.093Z,2.58
2023-03-19T06:40:48.521Z,2.35
2023-03-19T06:43:17.909Z,2.25
2023-03-19T06:45:49.381Z,2.38
2023-03-19T06:48:20.263Z,2.40
2023-03-19T06:50:48.657Z,2.60
2023-03-19T06:53:17.933Z,2.33
2023-03-19T06:55:47.534Z,2.47
2023-03-19T06:58:16.286Z,2.50
2023-03-19T07:00:45.371Z,2.90
2023-03-19T07:03:19.956Z,2.90
2023-03-19T07:05:50.189Z,2.80
2023-03-19T07:08:20.316Z,2.42
2023-03-19T07:10:50.214Z,2.47
2023-03-19T07:13:18.518Z,2.88
2023-03-19T07:15:52.939Z,2.83
2023-03-19T07:18:23.888Z,2.67
2023-03-19T07:20:53.027Z,2.47
2023-03-19T07:23:21.781Z,3.05
2023-03-19T07:25:50.860Z,2.60
2023-03-19T07:28:20.206Z,2.42
2023-03-19T07:30:48.756Z,2.47
2023-03-19T07:33:17.270Z,2.47
2023-03-19T07:35:47.630Z,2.58
2023-03-19T07:38:16.884Z,2.30
2023-03-19T07:41:01.018Z,2.65
2023-03-19T07:43:31.482Z,2.40
2023-03-19T07:46:00.038Z,2.95
2023-03-19T07:48:29.185Z,2.90
2023-03-19T07:50:59.198Z,2.85
2023-03-19T07:53:27.654Z,2.67
2023-03-19T07:55:56.111Z,2.70
2023-03-19T07:58:24.624Z,2.42
2023-03-19T08:00:54.821Z,2.03
2023-03-19T08:03:25.471Z,3.00
2023-03-19T08:05:54.119Z,2.10
2023-03-19T08:08:25.386Z,2.30
2023-03-19T08:10:55.558Z,2.75
2023-03-19T08:13:24.147Z,2.17
2023-03-19T08:15:53.831Z,2.90
2023-03-19T08:18:24.699Z,2.17
2023-03-19T08:20:54.327Z,2.75
2023-03-19T08:23:22.996Z,2.60
2023-03-19T08:25:53.790Z,2.17
2023-03-19T08:28:22.735Z,2.15
2023-03-19T08:30:51.569Z,1.95
2023-03-19T08:33:20.524Z,2.50
2023-03-19T08:35:49.192Z,2.35
2023-03-19T08:38:18.497Z,2.22
2023-03-19T08:40:48.293Z,2.20
2023-03-19T08:43:18.285Z,2.40
2023-03-19T08:45:46.985Z,2.53
2023-03-19T08:48:16.634Z,3.00
2023-03-19T08:50:45.011Z,2.25
2023-03-19T08:53:13.709Z,2.50
2023-03-19T08:55:42.885Z,2.30
2023-03-19T08:58:11.466Z,1.95
2023-03-19T09:00:41.550Z,2.00
2023-03-19T09:03:10.067Z,2.17
2023-03-19T09:05:38.345Z,2.80
2023-03-19T09:08:07.609Z,2.50
2023-03-19T09:10:36.716Z,1.90
2023-03-19T09:13:05.503Z,2.30
2023-03-19T09:15:34.118Z,2.28
2023-03-19T09:18:05.409Z,2.42
2023-03-19T09:20:33.985Z,2.38
2023-03-19T09:23:02.614Z,2.00
2023-03-19T09:25:31.261Z,2.38
2023-03-19T09:28:00.155Z,2.05
2023-03-19T09:30:28.741Z,2.42
2023-03-19T09:32:58.473Z,2.45
2023-03-19T09:35:31.704Z,1.85
2023-03-19T09:38:02.106Z,2.35
2023-03-19T09:40:37.337Z,2.03
2023-03-19T09:43:29.206Z,1.65
2023-03-19T09:45:58.653Z,2.13
2023-03-19T09:48:36.791Z,2.33
2023-03-19T09:51:16.895Z,2.05
2023-03-19T09:53:52.079Z,2.20
2023-03-19T09:56:20.964Z,2.13
2023-03-19T09:58:49.696Z,1.85
2023-03-19T10:01:28.088Z,2.20
2023-03-19T10:04:15.442Z,1.92
2023-03-19T10:06:45.529Z,2.35
2023-03-19T10:09:41.564Z,2.25
2023-03-19T10:12:26.252Z,2.15
2023-03-19T10:15:17.868Z,2.17
2023-03-19T10:17:56.564Z,2.20
2023-03-19T10:20:32.677Z,2.00
2023-03-19T10:23:10.021Z,1.90
2023-03-19T10:25:41.715Z,1.75
2023-03-19T10:28:17.433Z,1.98
2023-03-19T10:30:53.005Z,2.08
2023-03-19T10:33:27.324Z,2.30
2023-03-19T10:36:00.273Z,2.30
2023-03-19T10:38:33.737Z,2.30
2023-03-19T10:41:21.337Z,2.00
2023-03-19T10:43:54.808Z,2.25
2023-03-19T10:46:23.276Z,2.10
2023-03-19T10:48:52.044Z,2.35
2023-03-19T10:51:25.760Z,2.45
2023-03-19T10:53:56.996Z,2.33
2023-03-19T10:56:27.495Z,2.22
2023-03-19T10:59:04.506Z,1.85
2023-03-19T11:01:38.295Z,1.85
2023-03-19T11:04:15.765Z,2.00
2023-03-19T11:06:50.587Z,1.98
2023-03-19T11:09:29.916Z,2.30
2023-03-19T11:12:01.026Z,2.17
2023-03-19T11:14:37.029Z,2.13
2023-03-19T11:17:08.775Z,2.20
2023-03-19T11:19:42.966Z,2.13
2023-03-19T11:22:20.833Z,2.78
2023-03-19T11:24:57.592Z,2.22
2023-03-19T11:27:35.069Z,1.73
2023-03-19T11:30:06.723Z,1.75
2023-03-19T11:33:14.310Z,1.80
2023-03-19T11:35:46.736Z,1.98
2023-03-19T11:38:22.592Z,2.33
2023-03-19T11:40:59.149Z,2.00
2023-03-19T11:43:41.999Z,1.88
2023-03-19T11:46:21.926Z,1.80
2023-03-19T11:49:14.729Z,2.00
2023-03-19T11:51:51.754Z,1.77
2023-03-19T11:54:28.862Z,1.83
2023-03-19T11:57:04.199Z,1.98
2023-03-19T12:00:02.713Z,1.73
2023-03-19T12:03:10.210Z,1.67
2023-03-19T12:05:51.570Z,1.80
2023-03-19T12:08:34.467Z,1.90
2023-03-19T12:11:18.912Z,1.60
2023-03-19T12:14:04.221Z,1.42
2023-03-19T12:16:51.024Z,1.95
2023-03-19T12:19:38.980Z,1.92
2023-03-19T12:22:16.721Z,1.70
2023-03-19T12:25:03.646Z,1.67
2023-03-19T12:27:39.217Z,1.90
2023-03-19T12:30:21.980Z,1.58
2023-03-19T12:33:07.753Z,1.60
2023-03-19T12:35:38.755Z,1.83
2023-03-19T12:38:13.884Z,1.83
2023-03-19T12:40:47.348Z,2.08
2023-03-19T12:43:21.371Z,1.70
2023-03-19T12:45:58.350Z,2.72
2023-03-19T12:48:33.259Z,2.05
2023-03-19T12:51:08.159Z,1.88
2023-03-19T12:53:47.120Z,1.98
2023-03-19T12:56:23.057Z,1.90
2023-03-19T12:58:58.865Z,2.00
2023-03-19T13:01:35.225Z,2.30
2023-03-19T13:04:12.052Z,2.65
2023-03-19T13:06:50.138Z,2.03
2023-03-19T13:09:28.219Z,1.98
2023-03-19T13:12:05.696Z,1.77
2023-03-19T13:14:50.253Z,2.47
2023-03-19T13:17:30.006Z,2.00
2023-03-19T13:20:08.270Z,2.13
2023-03-19T13:22:41.647Z,2.17
2023-03-19T13:25:18.065Z,2.28
2023-03-19T13:27:55.575Z,1.60
2023-03-19T13:30:27.183Z,2.13
2023-03-19T13:33:05.891Z,1.90
2023-03-19T13:35:41.963Z,1.63
2023-03-19T13:38:21.916Z,2.15
2023-03-19T13:40:53.633Z,1.83
2023-03-19T13:43:44.274Z,2.08
2023-03-19T13:46:33.090Z,1.98
2023-03-19T13:49:25.569Z,2.05
2023-03-19T13:52:02.034Z,2.10
2023-03-19T13:54:38.139Z,2.30
2023-03-19T13:57:33.308Z,2.40
2023-03-19T14:00:41.120Z,2.00
2023-03-19T14:03:25.017Z,2.42
2023-03-19T14:05:57.850Z,2.45
2023-03-19T14:08:28.932Z,2.58
2023-03-19T14:11:00.591Z,3.15
2023-03-19T14:13:36.546Z,2.50
2023-03-19T14:16:17.552Z,2.35
2023-03-19T14:18:47.429Z,2.10
2023-03-19T14:21:36.564Z,2.15
2023-03-19T14:24:55.313Z,2.40
2023-03-19T14:27:24.363Z,2.30
2023-03-19T14:29:58.409Z,2.58
2023-03-19T14:32:36.035Z,2.58
2023-03-19T14:35:08.589Z,2.00
2023-03-19T14:37:48.029Z,2.10
2023-03-19T14:40:20.512Z,2.10
2023-03-19T14:43:00.796Z,2.13
2023-03-19T14:45:50.767Z,2.13
2023-03-19T14:48:54.933Z,2.00
2023-03-19T14:51:50.588Z,2.65
2023-03-19T14:54:30.350Z,2.40
2023-03-19T14:56:59.438Z,3.25
2023-03-19T14:59:28.132Z,2.95
2023-03-19T15:01:57.571Z,2.50
2023-03-19T15:04:29.394Z,2.35
2023-03-19T15:07:05.152Z,2.28
2023-03-19T15:09:37.899Z,2.92
2023-03-19T15:12:38.823Z,2.70
2023-03-19T15:15:23.158Z,2.65
2023-03-19T15:18:04.256Z,2.30
2023-03-19T15:20:39.166Z,2.42
2023-03-19T15:23:25.870Z,2.60
2023-03-19T15:26:00.601Z,2.22
2023-03-19T15:28:32.295Z,2.50
2023-03-19T15:31:21.887Z,2.60
2023-03-19T15:33:53.166Z,2.75
2023-03-19T15:36:30.329Z,2.67
2023-03-19T15:39:04.357Z,2.55
2023-03-19T15:41:40.834Z,2.80
2023-03-19T15:44:15.908Z,2.58
2023-03-19T15:46:51.978Z,2.70
2023-03-19T15:49:27.170Z,2.60
2023-03-19T15:52:04.067Z,2.10
2023-03-19T15:54:35.034Z,2.50
2023-03-19T15:57:07.361Z,2.28
2023-03-19T15:59:38.445Z,2.08
2023-03-19T16:02:23.373Z,2.30
2023-03-19T16:05:18.049Z,2.13
2023-03-19T16:07:44.356Z,2.78
2023-03-19T16:10:34.585Z,2.58
2023-03-19T16:13:06.337Z,2.90
2023-03-19T16:15:41.850Z,2.85
2023-03-19T16:18:28.611Z,3.50
2023-03-19T16:21:10.498Z,3.85
2023-03-19T16:23:43.969Z,3.03
2023-03-19T16:26:20.793Z,3.15
2023-03-19T16:28:59.937Z,3.25
2023-03-19T16:31:32.720Z,3.50
2023-03-19T16:34:02.229Z,4.40
2023-03-19T16:36:34.180Z,3.88
2023-03-19T16:39:28.136Z,5.63
2023-03-19T16:42:27.479Z,5.65
2023-03-19T16:44:58.417Z,4.10
2023-03-19T16:47:27.336Z,4.03
2023-03-19T16:49:55.868Z,3.90
2023-03-19T16:52:26.447Z,3.53
2023-03-19T16:54:56.247Z,4.07
2023-03-19T16:57:24.845Z,4.05
2023-03-19T16:59:55.006Z,4.50
2023-03-19T17:02:31.963Z,6.30
2023-03-19T17:05:14.159Z,7.85
2023-03-19T17:07:43.140Z,8.30
2023-03-19T17:10:16.209Z,8.18
2023-03-19T17:12:47.027Z,8.05
2023-03-19T17:15:24.502Z,8.10
2023-03-19T17:17:56.400Z,6.93
2023-03-19T17:20:32.374Z,7.63
2023-03-19T17:23:01.617Z,6.72
2023-03-19T17:25:31.129Z,8.02
2023-03-19T17:28:06.730Z,8.50
2023-03-19T17:30:35.560Z,9.25
2023-03-19T17:33:06.240Z,8.90
2023-03-19T17:35:35.773Z,10.27
2023-03-19T17:38:05.544Z,9.55
2023-03-19T17:40:34.785Z,9.52
2023-03-19T17:43:03.869Z,9.93
2023-03-19T17:45:33.282Z,10.23
2023-03-19T17:48:02.150Z,10.93
2023-03-19T17:50:34.069Z,14.13
2023-03-19T17:53:03.011Z,12.55
2023-03-19T17:55:32.602Z,12.35
2023-03-19T17:58:01.774Z,13.02
2023-03-19T18:00:30.327Z,10.30
2023-03-19T18:03:00.818Z,8.82
2023-03-19T18:05:29.432Z,5.60
2023-03-19T18:07:59.636Z,6.20
2023-03-19T18:10:33.494Z,6.10
2023-03-19T18:13:02.665Z,8.98
2023-03-19T18:15:33.353Z,10.95
2023-03-19T18:18:03.943Z,12.57
2023-03-19T18:20:37.796Z,12.75
2023-03-19T18:23:08.614Z,10.35
2023-03-19T18:25:37.197Z,8.88
2023-03-19T18:28:06.502Z,4.25
2023-03-19T18:30:37.257Z,6.25
2023-03-19T18:33:07.936Z,4.20
2023-03-19T18:35:40.872Z,6.70
2023-03-19T18:38:16.602Z,8.55
2023-03-19T18:40:45.559Z,8.07
2023-03-19T18:43:16.312Z,5.10
2023-03-19T18:45:50.335Z,8.77
2023-03-19T18:48:24.735Z,2.53
2023-03-19T18:50:54.932Z,1.40
2023-03-19T18:53:28.327Z,1.40
2023-03-19T18:55:56.730Z,1.20
2023-03-19T18:58:29.971Z,1.48
2023-03-19T19:01:02.205Z,1.20
2023-03-19T19:03:38.485Z,1.20
2023-03-19T19:06:09.018Z,1.40
2023-03-19T19:08:40.324Z,1.60
2023-03-19T19:11:15.043Z,1.40
2023-03-19T19:13:56.043Z,1.30
2023-03-19T19:16:31.497Z,1.40
2023-03-19T19:19:00.608Z,1.20
2023-03-19T19:21:29.396Z,1.10
2023-03-19T19:23:59.259Z,0.90
2023-03-19T19:26:31.478Z,1.00
2023-03-19T19:29:04.308Z,0.90
2023-03-19T19:31:36.202Z,1.10
2023-03-19T19:34:08.489Z,0.90
2023-03-19T19:36:38.029Z,1.30
2023-03-19T19:39:08.398Z,1.15
2023-03-19T19:41:40.726Z,0.80
2023-03-19T19:44:15.565Z,0.95
2023-03-19T19:46:46.239Z,1.00
2023-03-19T19:49:17.026Z,1.10
2023-03-19T19:51:46.766Z,1.00
2023-03-19T19:54:19.233Z,1.10
2023-03-19T19:56:48.321Z,1.00
2023-03-19T19:59:18.836Z,1.17
2023-03-19T20:01:51.982Z,0.80
2023-03-19T20:04:21.991Z,1.00
2023-03-19T20:06:52.317Z,1.10
2023-03-19T20:09:22.519Z,0.90
2023-03-19T20:11:51.222Z,0.60
2023-03-19T20:14:19.604Z,0.80
2023-03-19T20:16:49.501Z,0.90
2023-03-19T20:19:22.344Z,0.90
2023-03-19T20:21:58.452Z,0.60
2023-03-19T20:24:28.653Z,0.90
2023-03-19T20:27:00.270Z,0.90
2023-03-19T20:29:39.932Z,1.05
2023-03-19T20:32:27.636Z,1.42
2023-03-19T20:34:56.294Z,1.00
2023-03-19T20:37:25.243Z,1.10
2023-03-19T20:39:55.598Z,0.85
2023-03-19T20:42:25.202Z,1.10
2023-03-19T20:45:00.251Z,1.10
2023-03-19T20:47:33.296Z,1.10
2023-03-19T20:50:03.407Z,1.05
2023-03-19T20:52:31.799Z,1.48
2023-03-19T20:55:02.727Z,1.08
2023-03-19T20:57:31.647Z,1.50
2023-03-19T21:00:05.022Z,1.00
2023-03-19T21:02:33.754Z,0.95
2023-03-19T21:05:07.818Z,1.02
2023-03-19T21:07:36.607Z,1.00
2023-03-19T21:10:21.620Z,1.05
2023-03-19T21:12:50.269Z,1.00
2023-03-19T21:15:19.803Z,1.15
2023-03-19T21:17:48.274Z,1.00
2023-03-19T21:20:21.891Z,1.10
2023-03-19T21:22:54.990Z,1.20
2023-03-19T21:25:29.258Z,1.70
2023-03-19T21:28:03.164Z,1.40
2023-03-19T21:30:31.925Z,1.25
2023-03-19T21:33:01.703Z,4.90
2023-03-19T21:35:30.511Z,1.52
2023-03-19T21:37:59.301Z,1.60
2023-03-19T21:40:32.039Z,1.48
2023-03-19T21:43:04.050Z,1.55
2023-03-19T21:45:36.771Z,1.52
2023-03-19T21:48:25.045Z,1.48
2023-03-19T21:50:54.562Z,1.65
2023-03-19T21:53:23.654Z,1.67
2023-03-19T21:55:55.208Z,1.70
2023-03-19T21:58:30.949Z,1.52
2023-03-19T22:00:59.628Z,1.50
2023-03-19T22:03:29.216Z,1.80
2023-03-19T22:05:57.649Z,1.92
2023-03-19T22:08:27.416Z,1.83
2023-03-19T22:10:59.608Z,1.60
2023-03-19T22:13:31.426Z,1.70
2023-03-19T22:16:02.687Z,1.30
2023-03-19T22:18:32.361Z,1.88
2023-03-19T22:21:01.010Z,1.60
2023-03-19T22:23:29.638Z,1.80
2023-03-19T22:25:59.785Z,2.38
2023-03-19T22:28:35.885Z,2.30
2023-03-19T22:31:06.193Z,2.10
2023-03-19T22:33:37.934Z,2.00
2023-03-19T22:36:07.276Z,1.90
2023-03-19T22:38:35.810Z,2.20
2023-03-19T22:41:14.361Z,1.70
2023-03-19T22:43:43.271Z,2.00
2023-03-19T22:46:14.149Z,2.00
2023-03-19T22:48:43.290Z,1.60
2023-03-19T22:51:17.889Z,1.80
2023-03-19T22:53:47.552Z,2.10
2023-03-19T22:56:17.869Z,1.90
2023-03-19T22:58:47.146Z,2.08
2023-03-19T23:01:31.764Z,2.10
2023-03-19T23:04:16.622Z,1.88
2023-03-19T23:06:45.641Z,1.92
2023-03-19T23:09:17.904Z,2.15
2023-03-19T23:11:48.639Z,2.30
2023-03-19T23:14:29.020Z,2.10
2023-03-19T23:17:01.441Z,2.22
2023-03-19T23:19:32.229Z,4.88
2023-03-19T23:22:03.007Z,2.40
2023-03-19T23:24:32.739Z,2.20
2023-03-19T23:27:04.241Z,2.60
2023-03-19T23:29:36.378Z,2.22
2023-03-19T23:32:06.566Z,2.10
2023-03-19T23:34:42.566Z,2.40
2023-03-19T23:37:18.398Z,2.70
2023-03-19T23:39:47.889Z,2.35
2023-03-19T23:42:29.220Z,2.55
2023-03-19T23:45:01.596Z,2.58
2023-03-19T23:47:31.871Z,2.67
2023-03-19T23:50:00.969Z,2.63
2023-03-19T23:52:29.508Z,2.42
2023-03-19T23:54:58.401Z,2.75
2023-03-19T23:57:28.872Z,2.30
2023-03-19T23:59:58.035Z,2.58
